Time;durP1;ratioP1;P1;durP2;ratioP2;P2;SDS_P1;SDS_P2;PMS_P1;PMS_P2;Temp;Humidity;BMP_temperature;BMP_pressure;BME280_temperature;BME280_humidity;BME280_pressure;Samples;Min_cycle;Max_cycle;Signal;HPM_P1;HPM_P2
2024/02/14 00:00:13;;;;;;;6.37;5.87;;;6.90;99.90;;;;;;5177189;27;20465;-76
2024/02/14 00:02:45;;;;;;;7.17;6.50;;;6.90;99.90;;;;;;5177552;27;20416;-77
2024/02/14 00:05:16;;;;;;;7.10;6.37;;;6.90;99.90;;;;;;5158425;27;20488;-76
2024/02/14 00:07:45;;;;;;;8.93;7.57;;;6.90;99.90;;;;;;5159023;27;20529;-76
2024/02/14 00:10:13;;;;;;;6.73;6.03;;;6.90;99.90;;;;;;5177132;27;20496;-76
2024/02/14 00:12:41;;;;;;;7.13;6.43;;;6.90;99.90;;;;;;5158397;27;20447;-76
2024/02/14 00:15:10;;;;;;;7.53;6.83;;;6.90;99.90;;;;;;5176995;27;20548;-76
2024/02/14 00:17:39;;;;;;;7.63;6.53;;;6.90;99.90;;;;;;5158243;27;20848;-76
2024/02/14 00:20:11;;;;;;;6.83;6.10;;;6.90;99.90;;;;;;5176908;27;20461;-76
2024/02/14 00:22:40;;;;;;;7.63;6.93;;;7.00;99.90;;;;;;5177179;27;20419;-76
2024/02/14 00:25:10;;;;;;;7.07;6.47;;;7.00;99.90;;;;;;5158122;27;20831;-76
2024/02/14 00:27:38;;;;;;;7.73;6.77;;;6.90;99.90;;;;;;5157340;27;21012;-76
2024/02/14 00:30:08;;;;;;;7.77;7.07;;;6.90;99.90;;;;;;5176938;27;20471;-76
2024/02/14 00:32:36;;;;;;;7.73;7.03;;;7.00;99.90;;;;;;5157883;27;20515;-75
2024/02/14 00:35:05;;;;;;;8.47;7.77;;;6.90;99.90;;;;;;5157872;27;20465;-76
2024/02/14 00:37:34;;;;;;;8.77;7.83;;;6.90;99.90;;;;;;5176777;27;20765;-76
2024/02/14 00:40:04;;;;;;;8.33;7.53;;;6.90;99.90;;;;;;5176387;27;20461;-76
2024/02/14 00:42:32;;;;;;;7.70;7.00;;;6.90;99.90;;;;;;5157794;27;20944;-76
2024/02/14 00:45:01;;;;;;;8.83;8.03;;;6.90;99.90;;;;;;5176387;27;20479;-76
2024/02/14 00:47:29;;;;;;;9.07;7.00;;;6.90;99.90;;;;;;5157671;27;20450;-76
2024/02/14 00:49:58;;;;;;;8.47;7.67;;;6.90;99.90;;;;;;5157706;27;20453;-76
2024/02/14 00:52:26;;;;;;;8.60;7.80;;;6.90;99.90;;;;;;5176311;27;20959;-76
2024/02/14 00:54:55;;;;;;;9.77;7.63;;;6.90;99.90;;;;;;5157521;27;20468;-75
2024/02/14 00:57:26;;;;;;;8.10;7.30;;;6.90;99.90;;;;;;5176300;27;20438;-74
2024/02/14 00:59:56;;;;;;;9.37;8.37;;;6.90;99.90;;;;;;5157534;27;20460;-75
2024/02/14 01:02:26;;;;;;;8.23;7.50;;;7.00;99.90;;;;;;5176115;27;20470;-76
2024/02/14 01:04:54;;;;;;;8.80;7.97;;;7.00;99.90;;;;;;5157337;27;20471;-75
2024/02/14 01:07:22;;;;;;;8.73;7.73;;;7.00;99.90;;;;;;5176110;27;20440;-75
2024/02/14 01:09:50;;;;;;;9.40;8.53;;;6.90;99.90;;;;;;5176025;27;20841;-76
2024/02/14 01:12:19;;;;;;;9.00;8.10;;;7.00;99.90;;;;;;5176012;27;20430;-76
2024/02/14 01:14:49;;;;;;;9.83;8.73;;;6.90;99.90;;;;;;5175871;27;20506;-75
2024/02/14 01:17:18;;;;;;;9.13;8.33;;;6.90;99.90;;;;;;5176687;27;20430;-76
2024/02/14 01:19:46;;;;;;;10.47;9.47;;;7.00;99.90;;;;;;5157219;27;20479;-76
2024/02/14 01:22:16;;;;;;;9.40;8.60;;;7.00;99.90;;;;;;5157212;27;20440;-76
2024/02/14 01:24:44;;;;;;;10.33;7.90;;;6.90;99.90;;;;;;5175785;27;20438;-76
2024/02/14 01:27:13;;;;;;;9.93;8.97;;;7.00;99.90;;;;;;5156999;27;20809;-76
2024/02/14 01:29:41;;;;;;;10.40;9.33;;;6.90;99.90;;;;;;5157078;27;20443;-76
2024/02/14 01:32:11;;;;;;;8.93;8.17;;;7.00;99.90;;;;;;5157060;27;20475;-76
2024/02/14 01:34:39;;;;;;;11.13;9.70;;;7.00;99.90;;;;;;5156936;27;20482;-76
2024/02/14 01:37:09;;;;;;;9.13;8.33;;;6.90;99.90;;;;;;5175695;27;20445;-76
2024/02/14 01:39:38;;;;;;;9.90;9.10;;;7.00;99.90;;;;;;5157788;27;20440;-76
2024/02/14 01:42:07;;;;;;;9.87;8.97;;;6.90;99.90;;;;;;5161332;27;20444;-75
2024/02/14 01:44:36;;;;;;;10.37;8.67;;;6.90;99.90;;;;;;5161145;27;20453;-76
2024/02/14 01:47:06;;;;;;;9.90;9.00;;;6.90;99.90;;;;;;5180140;27;20522;-76
2024/02/14 01:49:36;;;;;;;9.80;8.90;;;7.00;99.90;;;;;;5161230;27;20504;-76
2024/02/14 01:52:06;;;;;;;9.07;8.17;;;7.00;99.90;;;;;;5161305;27;20432;-76
2024/02/14 01:54:35;;;;;;;10.20;9.13;;;7.00;99.90;;;;;;5160936;27;20579;-76
2024/02/14 01:57:05;;;;;;;10.63;9.53;;;6.90;99.90;;;;;;5161144;27;20871;-75
2024/02/14 01:59:35;;;;;;;11.30;10.30;;;6.90;99.90;;;;;;5179701;27;20936;-76
2024/02/14 02:02:07;;;;;;;10.37;9.23;;;7.00;99.90;;;;;;5160920;27;20869;-76
2024/02/14 02:04:38;;;;;;;10.87;9.80;;;7.00;99.90;;;;;;5160769;27;20939;-76
2024/02/14 02:07:06;;;;;;;12.40;10.37;;;7.00;99.90;;;;;;5179551;27;20440;-76
2024/02/14 02:09:34;;;;;;;10.63;9.57;;;7.00;99.90;;;;;;5179426;27;20522;-76
2024/02/14 02:12:07;;;;;;;13.00;9.97;;;7.00;99.90;;;;;;5160788;27;20483;-76
2024/02/14 02:14:36;;;;;;;11.13;10.17;;;7.00;99.90;;;;;;5160584;27;20434;-76
2024/02/14 02:17:07;;;;;;;10.73;9.90;;;7.00;99.90;;;;;;5179608;27;20426;-76
2024/02/14 02:19:37;;;;;;;11.63;10.57;;;7.00;99.90;;;;;;5179868;27;20464;-76
2024/02/14 02:22:05;;;;;;;12.83;10.87;;;7.00;99.90;;;;;;5160534;27;20818;-76
2024/02/14 02:24:35;;;;;;;14.43;10.00;;;7.00;99.90;;;;;;5160510;27;20877;-76
2024/02/14 02:27:04;;;;;;;11.37;10.37;;;7.00;99.90;;;;;;5160263;27;20454;-76
2024/02/14 02:29:33;;;;;;;11.53;10.63;;;7.00;99.90;;;;;;5160389;27;20962;-76
2024/02/14 02:32:01;;;;;;;12.20;11.13;;;7.00;99.90;;;;;;5160278;27;20464;-76
2024/02/14 02:34:29;;;;;;;12.50;11.20;;;7.00;99.90;;;;;;5179205;27;20440;-76
2024/02/14 02:36:58;;;;;;;12.77;11.57;;;7.00;99.90;;;;;;5160285;27;20434;-76
2024/02/14 02:39:26;;;;;;;13.00;11.80;;;7.00;99.90;;;;;;5160262;27;20463;-76
2024/02/14 02:41:57;;;;;;;12.93;11.83;;;7.00;99.90;;;;;;5160123;27;20897;-75
2024/02/14 02:44:27;;;;;;;15.17;12.70;;;7.00;99.90;;;;;;5160083;27;20957;-75
2024/02/14 02:46:55;;;;;;;13.57;12.27;;;7.00;99.90;;;;;;5160016;27;20451;-75
2024/02/14 02:49:23;;;;;;;13.73;12.57;;;7.00;99.90;;;;;;5178867;27;20927;-76
2024/02/14 02:51:52;;;;;;;12.33;11.33;;;7.00;99.90;;;;;;5159336;27;20443;-76
2024/02/14 02:54:22;;;;;;;13.63;12.30;;;7.00;99.90;;;;;;5159897;27;20443;-75
2024/02/14 02:56:50;;;;;;;17.07;13.50;;;7.00;99.90;;;;;;5159775;27;20477;-76
2024/02/14 02:59:20;;;;;;;13.80;12.43;;;7.00;99.90;;;;;;5178568;27;20501;-75
2024/02/14 03:01:49;;;;;;;14.60;13.03;;;7.00;99.90;;;;;;5159766;27;20467;-76
2024/02/14 03:04:18;;;;;;;14.63;13.40;;;7.00;99.90;;;;;;5159780;27;20459;-76
2024/02/14 03:06:47;;;;;;;15.23;13.93;;;7.00;99.90;;;;;;5159591;27;20469;-76
2024/02/14 03:09:17;;;;;;;14.80;13.60;;;7.10;99.90;;;;;;5159790;27;20446;-76
2024/02/14 03:11:47;;;;;;;17.27;15.53;;;7.00;99.90;;;;;;5159606;27;20434;-76
2024/02/14 03:14:16;;;;;;;16.57;15.07;;;7.00;99.90;;;;;;5178530;27;20514;-76
2024/02/14 03:16:46;;;;;;;16.33;14.83;;;7.00;99.90;;;;;;5159547;27;20875;-76
2024/02/14 03:19:14;;;;;;;16.70;15.30;;;7.00;99.90;;;;;;5160031;27;20441;-76
2024/02/14 03:21:43;;;;;;;17.10;15.70;;;7.00;99.90;;;;;;5159446;27;20511;-76
2024/02/14 03:24:12;;;;;;;16.73;15.40;;;7.00;99.90;;;;;;5178295;27;20486;-75
2024/02/14 03:26:41;;;;;;;17.97;16.47;;;7.00;99.90;;;;;;5159133;27;20571;-76
2024/02/14 03:29:10;;;;;;;16.63;15.23;;;7.00;99.90;;;;;;5178346;27;20427;-76
2024/02/14 03:31:38;;;;;;;17.17;15.67;;;7.10;99.90;;;;;;5177941;27;20484;-76
2024/02/14 03:34:08;;;;;;;17.60;16.10;;;7.00;99.90;;;;;;5178407;27;20426;-76
2024/02/14 03:36:38;;;;;;;18.30;16.80;;;7.00;99.90;;;;;;5177924;27;20460;-76
2024/02/14 03:39:06;;;;;;;18.00;16.30;;;7.00;99.90;;;;;;5159084;27;20510;-76
2024/02/14 03:41:35;;;;;;;18.70;16.87;;;7.00;99.90;;;;;;5177603;27;20466;-76
2024/02/14 03:44:03;;;;;;;18.23;16.57;;;7.10;99.90;;;;;;5158957;27;20801;-76
2024/02/14 03:46:35;;;;;;;17.43;15.87;;;7.10;99.90;;;;;;5158896;27;20467;-77
2024/02/14 03:49:03;;;;;;;17.40;15.87;;;7.10;99.90;;;;;;5158857;27;20438;-76
2024/02/14 03:51:33;;;;;;;19.40;17.60;;;7.10;99.90;;;;;;5158925;27;20535;-76
2024/02/14 03:54:01;;;;;;;19.80;17.90;;;7.10;99.90;;;;;;5177772;27;20435;-76
2024/02/14 03:56:32;;;;;;;17.93;16.43;;;7.10;99.90;;;;;;5158708;27;20504;-76
2024/02/14 03:59:00;;;;;;;18.50;16.90;;;7.10;99.90;;;;;;5158717;27;20436;-76
2024/02/14 04:01:31;;;;;;;17.50;16.10;;;7.10;99.90;;;;;;5177116;27;20514;-76
2024/02/14 04:03:59;;;;;;;18.87;17.37;;;7.10;99.90;;;;;;5158085;27;20453;-76
2024/02/14 04:06:27;;;;;;;19.67;17.87;;;7.10;99.90;;;;;;5177358;27;20458;-76
2024/02/14 04:08:57;;;;;;;18.73;17.23;;;7.10;99.90;;;;;;5177138;27;20431;-76
2024/02/14 04:11:25;;;;;;;17.90;16.50;;;7.10;99.90;;;;;;5158442;27;20490;-76
2024/02/14 04:13:54;;;;;;;20.97;19.27;;;7.10;99.90;;;;;;5158435;27;20440;-76
2024/02/14 04:16:22;;;;;;;17.93;16.33;;;7.20;99.90;;;;;;5158377;27;20472;-76
2024/02/14 04:18:50;;;;;;;17.20;15.80;;;7.10;99.90;;;;;;5158344;27;20841;-76
2024/02/14 04:21:19;;;;;;;20.80;19.00;;;7.20;99.90;;;;;;5158169;27;20449;-76
2024/02/14 04:23:47;;;;;;;20.30;18.40;;;7.20;99.90;;;;;;5177234;27;20927;-76
2024/02/14 04:26:21;;;;;;;23.33;20.03;;;7.20;99.90;;;;;;5158172;27;20466;-76
2024/02/14 04:28:49;;;;;;;20.53;18.83;;;7.20;99.90;;;;;;5158407;27;20453;-76
2024/02/14 04:31:17;;;;;;;20.37;18.77;;;7.20;99.90;;;;;;5177113;27;20431;-76
2024/02/14 04:33:50;;;;;;;23.67;21.57;;;7.20;99.90;;;;;;5158024;27;20524;-76
2024/02/14 04:36:19;;;;;;;20.03;18.43;;;7.20;99.90;;;;;;5158323;27;20800;-76
2024/02/14 04:38:48;;;;;;;19.80;18.07;;;7.20;99.90;;;;;;5157984;27;20446;-76
2024/02/14 04:41:17;;;;;;;18.97;17.47;;;7.30;99.90;;;;;;5176561;27;20439;-76
2024/02/14 04:43:46;;;;;;;18.50;16.90;;;7.20;99.90;;;;;;5157863;27;20490;-76
2024/02/14 04:46:14;;;;;;;19.30;17.80;;;7.30;99.90;;;;;;5157831;27;20528;-77
2024/02/14 04:48:43;;;;;;;19.30;17.80;;;7.30;99.90;;;;;;5176511;27;20427;-77
2024/02/14 04:51:11;;;;;;;18.70;17.20;;;7.30;99.90;;;;;;5176693;27;20821;-76
2024/02/14 04:53:39;;;;;;;18.80;17.30;;;7.30;99.90;;;;;;5157716;27;20448;-76
2024/02/14 04:56:08;;;;;;;18.80;17.30;;;7.30;99.90;;;;;;5176416;27;20479;-76
2024/02/14 04:58:36;;;;;;;19.37;17.73;;;7.30;99.90;;;;;;5157646;27;20447;-76
2024/02/14 05:01:07;;;;;;;20.60;19.00;;;7.30;99.90;;;;;;5157603;27;20780;-76
2024/02/14 05:03:36;;;;;;;20.23;18.53;;;7.30;99.90;;;;;;5176343;27;20965;-76
2024/02/14 05:06:05;;;;;;;20.80;19.10;;;7.40;99.90;;;;;;5176282;27;20960;-76
2024/02/14 05:08:33;;;;;;;19.57;17.87;;;7.40;99.90;;;;;;5157528;27;20446;-76
2024/02/14 05:11:02;;;;;;;19.97;18.37;;;7.40;99.90;;;;;;5157482;27;20447;-76
2024/02/14 05:13:31;;;;;;;19.20;17.80;;;7.40;99.90;;;;;;5157280;27;21004;-76
2024/02/14 05:16:03;;;;;;;19.67;18.17;;;7.40;99.90;;;;;;5176021;27;20452;-76
2024/02/14 05:18:32;;;;;;;18.77;17.27;;;7.40;99.90;;;;;;5157363;27;20465;-76
2024/02/14 05:21:01;;;;;;;19.70;18.10;;;7.40;99.90;;;;;;5176266;27;20436;-76
2024/02/14 05:23:29;;;;;;;21.10;19.40;;;7.40;99.90;;;;;;5157332;27;20672;-76
2024/02/14 05:25:58;;;;;;;20.87;19.07;;;7.50;99.90;;;;;;5175943;27;20524;-76
2024/02/14 05:28:26;;;;;;;19.87;18.17;;;7.40;99.90;;;;;;5157240;27;20498;-76
2024/02/14 05:30:54;;;;;;;21.17;19.40;;;7.50;99.90;;;;;;5157269;27;21008;-76
2024/02/14 05:33:22;;;;;;;21.20;19.60;;;7.50;99.90;;;;;;5157290;27;20478;-77
2024/02/14 05:35:53;;;;;;;21.83;20.03;;;7.50;99.90;;;;;;5157234;27;20495;-77
2024/02/14 05:38:21;;;;;;;20.70;19.03;;;7.50;99.90;;;;;;5175931;27;20428;-76
2024/02/14 05:40:50;;;;;;;20.47;18.77;;;7.60;99.90;;;;;;5175802;27;20433;-76
2024/02/14 05:43:18;;;;;;;20.47;18.87;;;7.50;99.90;;;;;;5157151;27;20468;-77
2024/02/14 05:45:47;;;;;;;22.73;20.83;;;7.60;99.90;;;;;;5157137;27;20471;-76
2024/02/14 05:48:15;;;;;;;20.53;18.73;;;7.60;99.90;;;;;;5157082;27;20941;-76
2024/02/14 05:50:43;;;;;;;19.67;18.17;;;7.60;99.90;;;;;;5176169;27;20952;-76
2024/02/14 05:53:13;;;;;;;21.53;19.63;;;7.60;99.90;;;;;;5175694;27;20443;-76
2024/02/14 05:55:41;;;;;;;22.40;20.60;;;7.60;99.90;;;;;;5175500;27;20532;-76
2024/02/14 05:58:09;;;;;;;21.83;20.03;;;7.70;99.90;;;;;;5175532;27;20835;-76
2024/02/14 06:00:38;;;;;;;20.83;19.23;;;7.70;99.90;;;;;;5156850;27;20451;-76
2024/02/14 06:03:06;;;;;;;21.10;19.43;;;7.70;99.90;;;;;;5156678;27;20976;-76
2024/02/14 06:05:35;;;;;;;22.13;20.33;;;7.70;99.90;;;;;;5175928;27;20497;-76
2024/02/14 06:08:04;;;;;;;20.90;19.20;;;7.70;99.90;;;;;;5175691;27;20458;-76
2024/02/14 06:10:35;;;;;;;22.27;20.43;;;7.80;99.90;;;;;;5175656;27;20484;-76
2024/02/14 06:13:03;;;;;;;22.30;20.50;;;7.80;99.90;;;;;;5156748;27;20437;-76
2024/02/14 06:15:32;;;;;;;22.93;21.13;;;7.80;99.90;;;;;;5175346;27;20550;-76
2024/02/14 06:18:00;;;;;;;20.77;18.97;;;7.90;99.90;;;;;;5156707;27;20485;-76
2024/02/14 06:20:28;;;;;;;22.70;20.83;;;7.90;99.90;;;;;;5175322;27;20480;-75
2024/02/14 06:22:57;;;;;;;22.17;20.17;;;7.90;99.90;;;;;;5156589;27;20495;-76
2024/02/14 06:25:34;;;;;;;22.60;20.70;;;7.90;99.90;;;;;;5157113;27;20452;-76
2024/02/14 06:28:03;;;;;;;21.13;19.30;;;8.00;99.90;;;;;;5160345;27;20792;-76
2024/02/14 06:30:31;;;;;;;21.80;19.90;;;8.00;99.90;;;;;;5179227;27;20532;-76
2024/02/14 06:33:02;;;;;;;21.73;19.83;;;8.00;99.90;;;;;;5179576;27;20446;-77
2024/02/14 06:35:31;;;;;;;22.70;20.80;;;8.00;99.90;;;;;;5160439;27;20546;-77
2024/02/14 06:38:00;;;;;;;21.80;19.87;;;8.00;99.90;;;;;;5160376;27;20499;-77
2024/02/14 06:40:34;;;;;;;20.47;18.77;;;8.00;99.90;;;;;;5160260;27;20440;-77
2024/02/14 06:43:02;;;;;;;22.17;20.17;;;8.10;99.90;;;;;;5178914;27;20459;-77
2024/02/14 06:45:31;;;;;;;22.33;20.33;;;8.10;99.90;;;;;;5160157;27;20513;-77
2024/02/14 06:47:59;;;;;;;22.20;20.30;;;8.20;99.90;;;;;;5160108;27;20448;-77
2024/02/14 06:50:28;;;;;;;21.30;19.40;;;8.20;99.90;;;;;;5160383;27;20456;-77
2024/02/14 06:52:59;;;;;;;20.60;18.80;;;8.20;99.90;;;;;;5178848;27;20524;-77
2024/02/14 06:55:28;;;;;;;21.47;19.67;;;8.20;99.90;;;;;;5178996;27;20456;-77
2024/02/14 06:57:57;;;;;;;20.30;18.60;;;8.30;99.90;;;;;;5159918;27;20444;-77
2024/02/14 07:00:26;;;;;;;19.27;17.67;;;8.30;99.90;;;;;;5160049;27;20453;-77
2024/02/14 07:02:54;;;;;;;20.67;18.97;;;8.30;99.90;;;;;;5178481;27;20475;-77
2024/02/14 07:05:23;;;;;;;18.43;16.83;;;8.30;99.90;;;;;;5159690;27;20976;-77
2024/02/14 07:07:51;;;;;;;19.67;17.87;;;8.40;99.90;;;;;;5159889;27;20956;-77
2024/02/14 07:10:19;;;;;;;18.70;17.10;;;8.40;99.90;;;;;;5159656;27;21006;-77
2024/02/14 07:12:47;;;;;;;18.53;16.93;;;8.40;99.90;;;;;;5178751;27;20496;-77
2024/02/14 07:15:18;;;;;;;17.80;16.30;;;8.40;99.90;;;;;;5159597;27;20468;-77
2024/02/14 07:17:46;;;;;;;17.90;16.40;;;8.50;99.90;;;;;;5160030;27;20441;-76
2024/02/14 07:20:17;;;;;;;16.47;15.07;;;8.50;99.90;;;;;;5159624;27;20447;-77
2024/02/14 07:22:47;;;;;;;17.37;15.67;;;8.50;99.90;;;;;;5159522;27;20972;-77
2024/02/14 07:25:15;;;;;;;15.93;14.63;;;8.60;99.90;;;;;;5159922;27;20452;-77
2024/02/14 07:27:45;;;;;;;16.50;15.10;;;8.60;99.90;;;;;;5159709;27;20456;-77
2024/02/14 07:30:16;;;;;;;17.00;15.50;;;8.60;99.90;;;;;;5178459;27;20409;-77
2024/02/14 07:32:44;;;;;;;15.07;13.87;;;8.60;99.90;;;;;;5159836;27;20448;-77
2024/02/14 07:35:13;;;;;;;16.43;14.93;;;8.70;99.90;;;;;;5159529;27;20465;-77
2024/02/14 07:37:42;;;;;;;15.33;14.00;;;8.70;99.90;;;;;;5159344;27;20445;-77
2024/02/14 07:40:12;;;;;;;16.27;14.87;;;8.80;99.90;;;;;;5159714;27;20437;-77
2024/02/14 07:42:43;;;;;;;16.10;14.70;;;8.80;99.90;;;;;;5159535;27;20449;-77
2024/02/14 07:45:12;;;;;;;16.03;14.63;;;8.80;99.90;;;;;;5159745;27;20507;-77
2024/02/14 07:47:42;;;;;;;15.03;13.63;;;8.80;99.90;;;;;;5179293;27;20506;-77
2024/02/14 07:50:11;;;;;;;15.43;14.13;;;8.90;99.90;;;;;;5160373;27;20445;-77
2024/02/14 07:52:43;;;;;;;15.33;14.03;;;8.90;99.90;;;;;;5179906;27;20477;-78
2024/02/14 07:55:12;;;;;;;16.53;15.17;;;8.90;99.90;;;;;;5160095;27;20468;-78
2024/02/14 07:57:40;;;;;;;14.57;13.27;;;9.00;99.90;;;;;;5178719;27;20456;-77
2024/02/14 08:00:10;;;;;;;15.73;14.43;;;9.00;99.90;;;;;;5159998;27;20852;-77
2024/02/14 08:02:39;;;;;;;14.50;13.30;;;9.00;99.90;;;;;;5160279;27;20544;-78
2024/02/14 08:05:08;;;;;;;14.27;13.07;;;9.10;99.90;;;;;;5159402;27;20505;-77
2024/02/14 08:07:37;;;;;;;13.73;12.53;;;9.10;99.90;;;;;;5160267;27;20476;-77
2024/02/14 08:10:06;;;;;;;12.73;11.67;;;9.10;99.90;;;;;;5159398;27;20480;-77
2024/02/14 08:12:34;;;;;;;12.97;11.87;;;9.20;99.90;;;;;;5178452;27;20432;-77
2024/02/14 08:15:04;;;;;;;11.27;10.33;;;9.20;99.90;;;;;;5159444;27;21043;-78
2024/02/14 08:17:33;;;;;;;11.73;10.70;;;9.20;99.90;;;;;;5178579;27;20433;-77
2024/02/14 08:20:03;;;;;;;11.33;10.40;;;9.20;99.90;;;;;;5160063;27;20497;-77
2024/02/14 08:22:33;;;;;;;11.93;10.90;;;9.20;99.90;;;;;;5159968;27;20519;-77
2024/02/14 08:25:01;;;;;;;11.10;10.10;;;9.30;99.90;;;;;;5178098;27;20579;-78
2024/02/14 08:27:31;;;;;;;9.17;8.30;;;9.30;99.90;;;;;;5178258;27;20444;-78
2024/02/14 08:29:59;;;;;;;10.70;9.80;;;9.40;99.90;;;;;;5159161;27;20463;-77
2024/02/14 08:32:28;;;;;;;10.30;9.40;;;9.40;99.90;;;;;;5177896;27;20941;-77
2024/02/14 08:34:56;;;;;;;9.77;8.97;;;9.40;99.90;;;;;;5158963;27;20464;-77
2024/02/14 08:37:26;;;;;;;9.57;8.80;;;9.40;99.90;;;;;;5177259;27;20457;-76
2024/02/14 08:39:55;;;;;;;9.73;8.93;;;9.40;99.90;;;;;;5158497;27;20854;-77
2024/02/14 08:42:23;;;;;;;9.00;8.20;;;9.50;99.90;;;;;;5158652;27;20468;-77
2024/02/14 08:44:52;;;;;;;10.70;9.80;;;9.50;99.90;;;;;;5177157;27;20957;-77
2024/02/14 08:47:20;;;;;;;11.50;10.60;;;9.50;99.90;;;;;;5158748;27;20910;-77
2024/02/14 08:49:48;;;;;;;12.93;11.83;;;9.50;99.90;;;;;;5158508;27;20444;-77
2024/02/14 08:52:16;;;;;;;13.20;12.07;;;9.60;99.90;;;;;;5160201;27;20971;-77
2024/02/14 08:54:45;;;;;;;12.90;11.70;;;9.60;99.90;;;;;;5179389;27;20929;-78
2024/02/14 08:57:14;;;;;;;13.53;12.37;;;9.60;99.90;;;;;;5160546;27;20476;-77
2024/02/14 08:59:46;;;;;;;14.07;12.87;;;9.70;99.90;;;;;;5160071;27;20444;-76
2024/02/14 09:02:15;;;;;;;14.40;13.07;;;9.70;99.90;;;;;;5179360;27;20495;-76
2024/02/14 09:04:44;;;;;;;13.57;12.30;;;9.70;99.90;;;;;;5157947;27;20497;-77
2024/02/14 09:07:13;;;;;;;14.23;12.93;;;9.80;99.90;;;;;;5160483;27;20445;-78
2024/02/14 09:09:41;;;;;;;13.93;12.63;;;9.80;99.90;;;;;;5158512;27;20448;-77
2024/02/14 09:12:10;;;;;;;12.43;11.33;;;9.80;99.90;;;;;;5158072;27;21004;-77
2024/02/14 09:14:39;;;;;;;14.50;13.13;;;9.90;99.90;;;;;;5176364;27;20465;-77
2024/02/14 09:17:08;;;;;;;14.03;12.53;;;9.90;99.90;;;;;;5157889;27;20459;-77
2024/02/14 09:19:36;;;;;;;13.30;12.00;;;10.00;99.90;;;;;;5157818;27;20501;-77
2024/02/14 09:22:06;;;;;;;14.17;12.87;;;10.00;99.90;;;;;;5158395;27;20559;-77
2024/02/14 09:24:34;;;;;;;15.23;13.80;;;10.00;99.90;;;;;;5157551;27;20464;-77
2024/02/14 09:27:05;;;;;;;16.07;14.57;;;10.00;99.90;;;;;;5176085;27;20658;-77
2024/02/14 09:29:34;;;;;;;16.20;14.60;;;10.10;99.90;;;;;;5157399;27;20513;-77
2024/02/14 09:32:04;;;;;;;16.63;14.83;;;10.10;99.90;;;;;;5176461;27;20433;-77
2024/02/14 09:34:33;;;;;;;16.80;15.07;;;10.10;99.90;;;;;;5157673;27;20656;-77
2024/02/14 09:37:00;;;;;;;17.90;16.20;;;10.20;99.90;;;;;;5157495;27;20436;-77
2024/02/14 09:39:28;;;;;;;26.63;17.07;;;10.20;99.90;;;;;;5157568;27;20472;-77
2024/02/14 09:42:01;;;;;;;17.83;16.03;;;10.20;99.90;;;;;;5175909;27;20840;-77
2024/02/14 09:44:29;;;;;;;17.00;15.30;;;10.30;99.90;;;;;;5157121;27;20465;-77
2024/02/14 09:46:59;;;;;;;17.90;16.03;;;10.30;99.90;;;;;;5157117;27;20432;-77
2024/02/14 09:49:30;;;;;;;18.07;16.27;;;10.30;99.90;;;;;;5175780;27;20488;-77
2024/02/14 09:51:59;;;;;;;19.90;17.80;;;10.40;99.90;;;;;;5157058;27;20826;-77
2024/02/14 09:54:28;;;;;;;17.90;16.10;;;10.40;99.90;;;;;;5175948;27;20467;-76
2024/02/14 09:56:57;;;;;;;17.00;15.30;;;10.40;99.90;;;;;;5157092;27;20436;-77
2024/02/14 09:59:25;;;;;;;19.00;16.83;;;10.50;99.90;;;;;;5157153;27;20543;-77
2024/02/14 10:01:53;;;;;;;18.90;16.93;;;10.50;99.90;;;;;;5180360;27;20471;-77
2024/02/14 10:04:24;;;;;;;19.07;17.07;;;10.50;99.90;;;;;;5161250;27;20468;-76
2024/02/14 10:06:55;;;;;;;19.40;17.07;;;10.60;99.90;;;;;;5179931;27;20452;-77
2024/02/14 10:09:25;;;;;;;19.00;17.20;;;10.60;99.90;;;;;;5180479;27;20436;-76
2024/02/14 10:11:54;;;;;;;18.67;16.63;;;10.60;99.90;;;;;;5161182;27;20489;-77
2024/02/14 10:14:24;;;;;;;19.30;17.17;;;10.70;99.90;;;;;;5161102;27;20449;-77
2024/02/14 10:16:52;;;;;;;18.27;16.53;;;10.70;99.90;;;;;;5160939;27;21040;-77
2024/02/14 10:19:20;;;;;;;18.70;16.80;;;10.70;99.90;;;;;;5179834;27;20853;-77
2024/02/14 10:21:58;;;;;;;18.03;16.33;;;10.80;99.90;;;;;;5161135;27;20529;-76
2024/02/14 10:24:27;;;;;;;19.23;17.17;;;10.80;99.90;;;;;;5179867;27;20972;-76
2024/02/14 10:26:57;;;;;;;18.73;16.93;;;10.80;99.90;;;;;;5160699;27;20448;-77
2024/02/14 10:29:26;;;;;;;18.43;16.53;;;10.80;99.90;;;;;;5161207;27;20489;-77
2024/02/14 10:31:54;;;;;;;18.40;16.60;;;10.90;99.90;;;;;;5179505;27;20421;-77
2024/02/14 10:34:26;;;;;;;19.40;17.40;;;10.90;99.90;;;;;;5179538;27;20432;-77
2024/02/14 10:36:59;;;;;;;19.33;17.33;;;10.90;99.90;;;;;;5179350;27;20829;-77
2024/02/14 10:39:30;;;;;;;19.73;17.70;;;10.90;99.90;;;;;;5160566;27;20872;-77
2024/02/14 10:41:59;;;;;;;18.97;17.10;;;10.90;99.90;;;;;;5160769;27;20429;-77
2024/02/14 10:44:28;;;;;;;19.37;17.40;;;10.90;99.90;;;;;;5179452;27;20443;-77
2024/02/14 10:47:00;;;;;;;19.57;17.57;;;10.90;99.90;;;;;;5179091;27;20467;-77
2024/02/14 10:49:30;;;;;;;18.90;17.10;;;11.00;99.90;;;;;;5181213;27;20428;-78
2024/02/14 10:52:04;;;;;;;19.53;17.63;;;11.00;99.90;;;;;;5179641;27;20429;-77
2024/02/14 10:54:35;;;;;;;17.93;16.27;;;11.00;99.90;;;;;;5160852;27;20475;-77
2024/02/14 10:57:11;;;;;;;18.13;16.33;;;11.00;99.90;;;;;;5179447;27;20470;-77
2024/02/14 10:59:44;;;;;;;18.27;16.50;;;11.00;99.90;;;;;;5160376;27;20440;-77
2024/02/14 11:02:13;;;;;;;17.50;15.80;;;11.00;99.90;;;;;;5162485;27;20444;-77
2024/02/14 11:04:41;;;;;;;18.67;16.77;;;11.00;99.90;;;;;;5166827;27;20452;-78
2024/02/14 11:07:13;;;;;;;16.97;15.30;;;11.00;99.90;;;;;;5166561;27;20992;-77
2024/02/14 11:09:41;;;;;;;16.23;14.53;;;11.00;99.90;;;;;;5166383;27;20433;-77
2024/02/14 11:12:11;;;;;;;18.00;16.20;;;11.00;99.90;;;;;;5163676;27;20449;-77
2024/02/14 11:14:45;;;;;;;19.27;17.37;;;11.00;99.90;;;;;;5163088;27;20444;-78
2024/02/14 11:17:14;;;;;;;17.20;15.60;;;11.00;99.90;;;;;;5182255;27;20508;-77
2024/02/14 11:19:42;;;;;;;17.83;16.13;;;11.10;99.90;;;;;;5162360;27;20433;-78
2024/02/14 11:22:13;;;;;;;16.00;14.53;;;11.10;99.90;;;;;;5181791;27;20613;-76
2024/02/14 11:24:42;;;;;;;16.83;15.30;;;11.10;99.90;;;;;;5160624;27;20429;-77
2024/02/14 11:27:12;;;;;;;16.70;15.00;;;11.10;99.90;;;;;;5162180;27;20476;-78
2024/02/14 11:30:00;;;;;;;16.73;13.97;;;11.10;99.90;;;;;;5161408;27;20433;-76
2024/02/14 11:32:30;;;;;;;16.53;14.83;;;11.10;99.90;;;;;;5180678;27;20527;-77
2024/02/14 11:34:59;;;;;;;15.73;14.27;;;11.10;99.90;;;;;;5186190;27;20452;-78
2024/02/14 11:37:32;;;;;;;14.27;12.97;;;11.20;99.90;;;;;;5165023;27;20445;-77
2024/02/14 11:40:01;;;;;;;14.77;13.47;;;11.20;99.90;;;;;;5165828;27;20433;-78
2024/02/14 11:42:30;;;;;;;15.20;13.60;;;11.20;99.90;;;;;;5165674;27;20539;-78
2024/02/14 11:44:59;;;;;;;15.00;13.60;;;11.20;99.90;;;;;;5166048;27;20532;-77
2024/02/14 11:47:27;;;;;;;15.63;14.17;;;11.20;99.90;;;;;;5166665;27;20460;-78
2024/02/14 11:49:58;;;;;;;15.30;14.00;;;11.20;99.90;;;;;;5181593;27;20828;-77
2024/02/14 11:52:27;;;;;;;16.23;14.73;;;11.20;99.90;;;;;;5160323;27;20433;-77
2024/02/14 11:54:59;;;;;;;16.57;15.07;;;11.30;99.90;;;;;;5159988;27;20501;-78
2024/02/14 11:57:27;;;;;;;15.40;14.00;;;11.30;99.90;;;;;;5178819;27;20417;-77
2024/02/14 11:59:58;;;;;;;15.97;14.37;;;11.30;99.90;;;;;;5160359;27;20525;-77
2024/02/14 12:02:27;;;;;;;14.60;13.20;;;11.30;99.90;;;;;;5180080;27;20417;-77
2024/02/14 12:04:55;;;;;;;14.37;13.17;;;11.30;99.90;;;;;;5160092;27;20972;-78
2024/02/14 12:07:24;;;;;;;14.50;13.00;;;11.30;99.90;;;;;;5179355;27;20452;-77
2024/02/14 12:09:55;;;;;;;13.37;12.17;;;11.30;99.90;;;;;;5160248;27;20444;-77
2024/02/14 12:12:25;;;;;;;14.23;12.80;;;11.30;99.90;;;;;;5179188;27;20417;-77
2024/02/14 12:14:53;;;;;;;14.13;12.80;;;11.30;99.90;;;;;;5159982;27;20487;-77
2024/02/14 12:17:22;;;;;;;12.93;11.50;;;11.30;99.90;;;;;;5160271;27;20528;-77
2024/02/14 12:19:52;;;;;;;12.17;11.17;;;11.30;99.90;;;;;;5177465;27;20497;-77
2024/02/14 12:22:21;;;;;;;14.50;13.20;;;11.40;99.90;;;;;;5178007;27;20523;-77
2024/02/14 12:24:49;;;;;;;13.73;12.63;;;11.40;99.90;;;;;;5160121;27;20491;-78
2024/02/14 12:27:19;;;;;;;13.07;11.97;;;11.40;99.90;;;;;;5159232;27;20875;-76
2024/02/14 12:29:49;;;;;;;13.40;12.10;;;11.40;99.90;;;;;;5158083;27;20532;-76
2024/02/14 12:32:18;;;;;;;12.60;11.57;;;11.40;99.90;;;;;;5159319;27;20444;-76
2024/02/14 12:34:46;;;;;;;13.50;12.40;;;11.40;99.90;;;;;;5177405;27;20468;-75
2024/02/14 12:37:15;;;;;;;14.70;13.40;;;11.40;99.90;;;;;;5158785;27;20448;-77
2024/02/14 12:39:43;;;;;;;14.03;12.93;;;11.40;99.90;;;;;;5160311;27;20444;-77
2024/02/14 12:42:11;;;;;;;14.10;12.80;;;11.40;99.90;;;;;;5179216;27;20440;-77
2024/02/14 12:44:40;;;;;;;12.47;11.37;;;11.40;99.90;;;;;;5159494;27;20445;-77
2024/02/14 12:47:10;;;;;;;13.03;11.93;;;11.50;99.90;;;;;;5159426;27;20547;-78